createdAt,value
2019-03-18T00:00:47.065Z,1002.14
2019-03-18T00:01:47.055Z,1002.17
2019-03-18T00:02:47.042Z,1002.18
2019-03-18T00:03:47.033Z,1002.27
2019-03-18T00:04:47.045Z,1002.21
2019-03-18T00:05:47.002Z,1002.24
2019-03-18T00:06:46.994Z,1002.28
2019-03-18T00:07:46.983Z,1002.31
2019-03-18T00:08:46.974Z,1002.26
2019-03-18T00:09:46.966Z,1002.30
2019-03-18T00:10:46.993Z,1002.28
2019-03-18T00:12:48.037Z,1002.31
2019-03-18T00:13:46.919Z,1002.40
2019-03-18T00:14:46.904Z,1002.42
2019-03-18T00:15:46.921Z,1002.48
2019-03-18T00:16:46.880Z,1002.52
2019-03-18T00:17:46.874Z,1002.53
2019-03-18T00:18:46.862Z,1002.46
2019-03-18T00:19:46.857Z,1002.46
2019-03-18T00:20:46.869Z,1002.49
2019-03-18T00:21:46.829Z,1002.42
2019-03-18T00:22:46.817Z,1002.47
2019-03-18T00:23:46.814Z,1002.46
2019-03-18T00:24:46.797Z,1002.45
2019-03-18T00:25:46.825Z,1002.54
2019-03-18T00:26:46.781Z,1002.50
2019-03-18T00:27:46.760Z,1002.51
2019-03-18T00:28:46.753Z,1002.51
2019-03-18T00:29:46.737Z,1002.51
2019-03-18T00:30:46.755Z,1002.55
2019-03-18T00:31:46.724Z,1002.52
2019-03-18T00:32:46.718Z,1002.45
2019-03-18T00:33:46.716Z,1002.47
2019-03-18T00:34:46.682Z,1002.42
2019-03-18T00:35:46.706Z,1002.38
2019-03-18T00:36:46.676Z,1002.38
2019-03-18T00:37:46.661Z,1002.29
2019-03-18T00:38:46.646Z,1002.34
2019-03-18T00:39:46.637Z,1002.31
2019-03-18T00:40:46.674Z,1002.30
2019-03-18T00:41:46.610Z,1002.33
2019-03-18T00:42:46.657Z,1002.31
2019-03-18T00:43:46.593Z,1002.39
2019-03-18T00:44:46.573Z,1002.43
2019-03-18T00:45:46.565Z,1002.36
2019-03-18T00:46:46.580Z,1002.36
2019-03-18T00:47:46.544Z,1002.39
2019-03-18T00:48:46.555Z,1002.39
2019-03-18T00:49:46.531Z,1002.40
2019-03-18T00:50:46.513Z,1002.45
2019-03-18T00:51:46.695Z,1002.48
2019-03-18T00:52:46.491Z,1002.39
2019-03-18T00:53:46.481Z,1002.37
2019-03-18T00:54:46.472Z,1002.47
2019-03-18T00:55:46.481Z,1002.51
2019-03-18T00:56:46.495Z,1002.47
2019-03-18T00:57:46.438Z,1002.45
2019-03-18T00:58:46.424Z,1002.47
2019-03-18T00:59:46.417Z,1002.56
2019-03-18T01:00:46.417Z,1002.50
2019-03-18T01:01:46.525Z,1002.49
2019-03-18T01:02:49.201Z,1002.46
2019-03-18T01:03:46.379Z,1002.47
2019-03-18T01:04:46.358Z,1002.51
2019-03-18T01:05:46.348Z,1002.52
2019-03-18T01:06:46.379Z,1002.53
2019-03-18T01:07:46.327Z,1002.59
2019-03-18T01:08:46.319Z,1002.60
2019-03-18T01:09:46.306Z,1002.60
2019-03-18T01:10:46.303Z,1002.57
2019-03-18T01:11:46.284Z,1002.61
2019-03-18T01:12:46.319Z,1002.61
2019-03-18T01:13:46.260Z,1002.70
2019-03-18T01:14:46.252Z,1002.64
2019-03-18T01:15:46.239Z,1002.61
2019-03-18T01:16:46.264Z,1002.52
2019-03-18T01:17:46.223Z,1002.62
2019-03-18T01:18:46.219Z,1002.57
2019-03-18T01:19:46.199Z,1002.57
2019-03-18T01:20:46.187Z,1002.56
2019-03-18T01:21:46.178Z,1002.55
2019-03-18T01:22:46.211Z,1002.68
2019-03-18T01:23:46.154Z,1002.51
2019-03-18T01:24:46.140Z,1002.52
2019-03-18T01:25:46.129Z,1002.49
2019-03-18T01:26:46.133Z,1002.61
2019-03-18T01:27:46.143Z,1002.54
2019-03-18T01:28:46.099Z,1002.63
2019-03-18T01:29:46.094Z,1002.61
2019-03-18T01:30:46.078Z,1002.62
2019-03-18T01:31:46.068Z,1002.66
2019-03-18T01:32:46.086Z,1002.72
2019-03-18T01:33:46.063Z,1002.60
2019-03-18T01:34:46.037Z,1002.59
2019-03-18T01:35:46.030Z,1002.72
2019-03-18T01:36:46.010Z,1002.59
2019-03-18T01:37:46.032Z,1002.59
2019-03-18T01:38:45.990Z,1002.52
2019-03-18T01:39:46.002Z,1002.55
2019-03-18T01:40:45.974Z,1002.63
2019-03-18T01:41:45.969Z,1002.69
2019-03-18T01:42:45.978Z,1002.58
2019-03-18T01:43:45.946Z,1002.58
2019-03-18T01:44:45.944Z,1002.55
2019-03-18T01:45:45.915Z,1002.61
2019-03-18T01:46:45.905Z,1002.57
2019-03-18T01:47:45.927Z,1002.62
2019-03-18T01:48:45.883Z,1002.53
2019-03-18T01:49:45.878Z,1002.58
2019-03-18T01:50:45.863Z,1002.60
2019-03-18T01:51:45.849Z,1002.54
2019-03-18T01:52:45.872Z,1002.54
2019-03-18T01:53:45.827Z,1002.59
2019-03-18T01:54:45.824Z,1002.58
2019-03-18T01:55:45.805Z,1002.54
2019-03-18T01:56:45.797Z,1002.54
2019-03-18T01:57:45.816Z,1002.48
2019-03-18T01:58:45.787Z,1002.51
2019-03-18T01:59:45.786Z,1002.60
2019-03-18T02:00:45.755Z,1002.50
2019-03-18T02:01:45.740Z,1002.50
2019-03-18T02:02:45.741Z,1002.51
2019-03-18T02:03:45.806Z,1002.55
2019-03-18T02:04:45.708Z,1002.49
2019-03-18T02:05:45.698Z,1002.51
2019-03-18T02:06:45.687Z,1002.63
2019-03-18T02:07:45.685Z,1002.63
2019-03-18T02:08:45.704Z,1002.65
2019-03-18T02:09:45.682Z,1002.63
2019-03-18T02:10:45.654Z,1002.74
2019-03-18T02:11:45.633Z,1002.77
2019-03-18T02:12:45.624Z,1002.75
2019-03-18T02:13:45.661Z,1002.81
2019-03-18T02:14:45.610Z,1002.86
2019-03-18T02:15:53.354Z,1002.86
2019-03-18T02:16:46.577Z,1002.94
2019-03-18T02:17:45.568Z,1002.87
2019-03-18T02:18:45.560Z,1002.93
2019-03-18T02:19:45.575Z,1002.93
2019-03-18T02:20:45.560Z,1002.99
2019-03-18T02:21:45.533Z,1002.97
2019-03-18T02:22:45.519Z,1002.96
2019-03-18T02:23:45.507Z,1002.95
2019-03-18T02:24:45.519Z,1002.98
2019-03-18T02:25:45.483Z,1002.96
2019-03-18T02:26:45.474Z,1002.94
2019-03-18T02:27:45.466Z,1002.90
2019-03-18T02:28:47.318Z,1002.99
2019-03-18T02:29:45.473Z,1002.98
2019-03-18T02:30:45.437Z,1002.98
2019-03-18T02:31:45.419Z,1002.92
2019-03-18T02:32:45.419Z,1003.02
2019-03-18T02:33:45.407Z,1003.02
2019-03-18T02:34:45.433Z,1003.08
2019-03-18T02:35:45.387Z,1003.02
2019-03-18T02:36:45.388Z,1003.00
2019-03-18T02:37:45.353Z,1002.89
2019-03-18T02:38:45.360Z,1002.96
2019-03-18T02:39:45.340Z,1002.92
2019-03-18T02:40:45.347Z,1002.96
2019-03-18T02:41:45.320Z,1002.97
2019-03-18T02:42:45.420Z,1003.01
2019-03-18T02:43:45.288Z,1002.99
2019-03-18T02:44:45.278Z,1003.01
2019-03-18T02:45:45.308Z,1002.93
2019-03-18T02:46:45.256Z,1003.07
2019-03-18T02:47:45.261Z,1003.04
2019-03-18T02:48:45.239Z,1002.96
2019-03-18T02:49:45.224Z,1002.99
2019-03-18T02:50:45.236Z,1003.06
2019-03-18T02:51:45.213Z,1003.07
2019-03-18T02:52:45.192Z,1003.08
2019-03-18T02:53:45.181Z,1003.10
2019-03-18T02:54:45.169Z,1003.05
2019-03-18T02:55:45.327Z,1003.03
2019-03-18T02:56:45.151Z,1003.07
2019-03-18T02:57:45.151Z,1003.09
2019-03-18T02:58:45.128Z,1003.21
2019-03-18T02:59:45.118Z,1003.14
2019-03-18T03:00:45.132Z,1003.10
2019-03-18T03:01:45.108Z,1003.14
2019-03-18T03:02:45.103Z,1003.15
2019-03-18T03:03:45.182Z,1003.11
2019-03-18T03:04:45.082Z,1003.20
2019-03-18T03:05:45.156Z,1003.15
2019-03-18T03:06:45.050Z,1003.15
2019-03-18T03:07:45.031Z,1003.23
2019-03-18T03:08:45.020Z,1003.33
2019-03-18T03:09:45.009Z,1003.23
2019-03-18T03:10:45.029Z,1003.27
2019-03-18T03:11:45.027Z,1003.27
2019-03-18T03:12:44.979Z,1003.27
2019-03-18T03:13:44.972Z,1003.31
2019-03-18T03:14:44.953Z,1003.27
2019-03-18T03:15:44.945Z,1003.35
2019-03-18T03:16:44.958Z,1003.32
2019-03-18T03:17:44.929Z,1003.38
2019-03-18T03:18:44.914Z,1003.29
2019-03-18T03:19:44.909Z,1003.43
2019-03-18T03:20:44.891Z,1003.39
2019-03-18T03:21:44.918Z,1003.43
2019-03-18T03:22:44.878Z,1003.38
2019-03-18T03:23:44.866Z,1003.43
2019-03-18T03:24:44.845Z,1003.44
2019-03-18T03:25:44.843Z,1003.47
2019-03-18T03:26:44.856Z,1003.45
2019-03-18T03:27:44.813Z,1003.42
2019-03-18T03:28:44.803Z,1003.43
2019-03-18T03:29:44.792Z,1003.39
2019-03-18T03:30:44.780Z,1003.41
2019-03-18T03:31:44.805Z,1003.39
2019-03-18T03:32:44.798Z,1003.51
2019-03-18T03:33:44.749Z,1003.40
2019-03-18T03:34:44.739Z,1003.44
2019-03-18T03:35:44.724Z,1003.51
2019-03-18T03:36:44.740Z,1003.50
2019-03-18T03:37:44.715Z,1003.46
2019-03-18T03:38:44.692Z,1003.48
2019-03-18T03:39:44.681Z,1003.51
2019-03-18T03:40:44.671Z,1003.50
2019-03-18T03:41:44.685Z,1003.53
2019-03-18T03:42:44.685Z,1003.61
2019-03-18T03:43:44.648Z,1003.53
2019-03-18T03:44:44.628Z,1003.59
2019-03-18T03:45:44.618Z,1003.65
2019-03-18T03:46:44.607Z,1003.67
2019-03-18T03:47:44.637Z,1003.63
2019-03-18T03:48:44.599Z,1003.63
2019-03-18T03:49:44.605Z,1003.65
2019-03-18T03:50:44.573Z,1003.64
2019-03-18T03:51:44.558Z,1003.64
2019-03-18T03:52:44.578Z,1003.62
2019-03-18T03:53:44.533Z,1003.66
2019-03-18T03:54:44.524Z,1003.66
2019-03-18T03:55:44.509Z,1003.67
2019-03-18T03:56:44.498Z,1003.70
2019-03-18T03:57:44.513Z,1003.68
2019-03-18T03:58:44.480Z,1003.68
2019-03-18T03:59:44.477Z,1003.70
2019-03-18T04:00:44.457Z,1003.69
2019-03-18T04:01:44.450Z,1003.67
2019-03-18T04:02:44.465Z,1003.74
2019-03-18T04:03:44.424Z,1003.74
2019-03-18T04:04:44.413Z,1003.80
2019-03-18T04:05:44.401Z,1003.80
2019-03-18T04:06:44.393Z,1003.81
2019-03-18T04:07:44.406Z,1003.80
2019-03-18T04:08:44.434Z,1003.75
2019-03-18T04:09:44.368Z,1003.71
2019-03-18T04:10:44.356Z,1003.81
2019-03-18T04:11:44.339Z,1003.75
2019-03-18T04:12:44.333Z,1003.77
2019-03-18T04:13:44.345Z,1003.83
2019-03-18T04:14:44.307Z,1003.87
2019-03-18T04:15:44.295Z,1003.83
2019-03-18T04:16:55.826Z,1003.82
2019-03-18T04:17:45.277Z,1003.85
2019-03-18T04:18:44.281Z,1003.87
2019-03-18T04:19:44.249Z,1003.91
2019-03-18T04:20:44.239Z,1003.87
2019-03-18T04:21:44.230Z,1003.85
2019-03-18T04:22:44.264Z,1003.85
2019-03-18T04:23:44.228Z,1003.83
2019-03-18T04:24:44.194Z,1003.90
2019-03-18T04:25:44.187Z,1003.89
2019-03-18T04:26:44.174Z,1003.90
2019-03-18T04:27:44.177Z,1003.95
2019-03-18T04:28:44.187Z,1004.02
2019-03-18T04:29:44.138Z,1003.99
2019-03-18T04:30:44.144Z,1004.02
2019-03-18T04:31:44.116Z,1004.02
2019-03-18T04:32:44.116Z,1004.01
2019-03-18T04:33:44.128Z,1003.98
2019-03-18T04:34:44.122Z,1004.09
2019-03-18T04:35:44.079Z,1004.15
2019-03-18T04:36:44.066Z,1004.14
2019-03-18T04:37:44.051Z,1004.12
2019-03-18T04:38:44.070Z,1004.17
2019-03-18T04:39:44.030Z,1004.25
2019-03-18T04:40:44.024Z,1004.19
2019-03-18T04:41:44.009Z,1004.21
2019-03-18T04:42:44.007Z,1004.31
2019-03-18T04:43:44.079Z,1004.34
2019-03-18T04:44:44.002Z,1004.43
2019-03-18T04:45:43.968Z,1004.30
2019-03-18T04:46:43.966Z,1004.32
2019-03-18T04:47:43.945Z,1004.36
2019-03-18T04:48:43.937Z,1004.41
2019-03-18T04:49:43.945Z,1004.38
2019-03-18T04:50:43.913Z,1004.36
2019-03-18T04:51:43.898Z,1004.37
2019-03-18T04:52:43.886Z,1004.36
2019-03-18T04:53:43.875Z,1004.35
2019-03-18T04:54:43.891Z,1004.38
2019-03-18T04:55:43.854Z,1004.34
2019-03-18T04:56:43.844Z,1004.45
2019-03-18T04:57:43.832Z,1004.42
2019-03-18T04:58:43.828Z,1004.38
2019-03-18T04:59:43.838Z,1004.47
2019-03-18T05:00:43.801Z,1004.49
2019-03-18T05:01:43.789Z,1004.43
2019-03-18T05:02:43.779Z,1004.48
2019-03-18T05:03:43.768Z,1004.44
2019-03-18T05:04:43.804Z,1004.47
2019-03-18T05:05:43.764Z,1004.46
2019-03-18T05:06:43.736Z,1004.45
2019-03-18T05:07:43.725Z,1004.47
2019-03-18T05:08:43.714Z,1004.51
2019-03-18T05:09:43.704Z,1004.49
2019-03-18T05:10:43.713Z,1004.56
2019-03-18T05:11:43.677Z,1004.53
2019-03-18T05:12:43.674Z,1004.51
2019-03-18T05:13:43.728Z,1004.61
2019-03-18T05:14:43.650Z,1004.55
2019-03-18T05:15:43.663Z,1004.56
2019-03-18T05:16:43.625Z,1004.56
2019-03-18T05:17:43.615Z,1004.57
2019-03-18T05:18:43.603Z,1004.57
2019-03-18T05:19:43.591Z,1004.64
2019-03-18T05:20:43.612Z,1004.62
2019-03-18T05:21:43.573Z,1004.67
2019-03-18T05:22:43.575Z,1004.65
2019-03-18T05:23:43.550Z,1004.61
2019-03-18T05:24:43.539Z,1004.61
2019-03-18T05:25:43.559Z,1004.61
2019-03-18T05:26:43.516Z,1004.60
2019-03-18T05:27:43.515Z,1004.60
2019-03-18T05:28:43.494Z,1004.60
2019-03-18T05:29:43.484Z,1004.62
2019-03-18T05:30:43.473Z,1004.64
2019-03-18T05:31:43.488Z,1004.63
2019-03-18T05:32:43.455Z,1004.62
2019-03-18T05:33:43.440Z,1004.68
2019-03-18T05:34:43.430Z,1004.67
2019-03-18T05:35:43.451Z,1004.68
2019-03-18T05:36:43.414Z,1004.67
2019-03-18T05:37:43.405Z,1004.68
2019-03-18T05:38:43.385Z,1004.68
2019-03-18T05:39:43.372Z,1004.82
2019-03-18T05:40:43.375Z,1004.79
2019-03-18T05:41:43.376Z,1004.82
2019-03-18T05:42:43.354Z,1004.87
2019-03-18T05:43:43.330Z,1004.88
2019-03-18T05:44:43.328Z,1004.90
2019-03-18T05:45:43.310Z,1005.00
2019-03-18T05:46:43.329Z,1004.99
2019-03-18T05:47:43.293Z,1005.02
2019-03-18T05:48:43.277Z,1005.07
2019-03-18T05:49:43.265Z,1005.05
2019-03-18T05:50:43.258Z,1005.07
2019-03-18T05:51:43.273Z,1005.11
2019-03-18T05:52:43.239Z,1005.10
2019-03-18T05:53:43.223Z,1005.13
2019-03-18T05:54:43.212Z,1005.11
2019-03-18T05:55:43.203Z,1005.18
2019-03-18T05:56:43.359Z,1005.17
2019-03-18T05:57:43.203Z,1005.18
2019-03-18T05:58:43.182Z,1005.17
2019-03-18T05:59:43.174Z,1005.21
2019-03-18T06:00:43.148Z,1005.19
2019-03-18T06:01:43.167Z,1005.22
2019-03-18T06:02:43.160Z,1005.25
2019-03-18T06:03:43.116Z,1005.24
2019-03-18T06:04:43.110Z,1005.23
2019-03-18T06:05:43.095Z,1005.23
2019-03-18T06:06:43.173Z,1005.28
2019-03-18T06:07:43.096Z,1005.26
2019-03-18T06:08:43.080Z,1005.36
2019-03-18T06:09:43.052Z,1005.36
2019-03-18T06:10:43.038Z,1005.31
2019-03-18T06:11:43.033Z,1005.33
2019-03-18T06:12:43.087Z,1005.41
2019-03-18T06:13:43.006Z,1005.40
2019-03-18T06:14:42.999Z,1005.39
2019-03-18T06:15:42.991Z,1005.40
2019-03-18T06:16:42.976Z,1005.45
2019-03-18T06:17:52.264Z,1005.45
2019-03-18T06:18:43.958Z,1005.49
2019-03-18T06:19:42.947Z,1005.46
2019-03-18T06:20:42.939Z,1005.54
2019-03-18T06:21:42.919Z,1005.56
2019-03-18T06:22:42.937Z,1005.59
2019-03-18T06:23:42.899Z,1005.61
2019-03-18T06:24:42.891Z,1005.63
2019-03-18T06:25:42.883Z,1005.62
2019-03-18T06:26:42.866Z,1005.63
2019-03-18T06:27:42.894Z,1005.68
2019-03-18T06:28:42.846Z,1005.64
2019-03-18T06:29:42.843Z,1005.64
2019-03-18T06:30:42.824Z,1005.70
2019-03-18T06:31:42.811Z,1005.69
2019-03-18T06:32:42.837Z,1005.71
2019-03-18T06:33:42.815Z,1005.76
2019-03-18T06:34:42.795Z,1005.71
2019-03-18T06:35:42.771Z,1005.75
2019-03-18T06:36:42.762Z,1005.72
2019-03-18T06:37:42.787Z,1005.80
2019-03-18T06:38:42.760Z,1005.86
2019-03-18T06:39:42.735Z,1005.82
2019-03-18T06:40:42.715Z,1005.91
2019-03-18T06:41:42.704Z,1005.84
2019-03-18T06:42:42.695Z,1005.84
2019-03-18T06:43:42.712Z,1005.84
2019-03-18T06:44:42.678Z,1005.83
2019-03-18T06:45:42.661Z,1005.90
2019-03-18T06:46:42.663Z,1005.90
2019-03-18T06:47:42.652Z,1005.88
2019-03-18T06:48:42.649Z,1005.92
2019-03-18T06:49:42.646Z,1005.92
2019-03-18T06:50:42.605Z,1005.95
2019-03-18T06:51:42.601Z,1006.03
2019-03-18T06:52:42.590Z,1005.99
2019-03-18T06:53:42.575Z,1006.04
2019-03-18T06:54:42.587Z,1006.09
2019-03-18T06:55:42.555Z,1006.05
2019-03-18T06:56:42.555Z,1006.06
2019-03-18T06:57:42.529Z,1006.16
2019-03-18T06:58:42.521Z,1006.17
2019-03-18T06:59:42.537Z,1006.16
2019-03-18T07:00:42.507Z,1006.19
2019-03-18T07:01:42.488Z,1006.15
2019-03-18T07:02:42.474Z,1006.23
2019-03-18T07:03:42.470Z,1006.19
2019-03-18T07:04:42.500Z,1006.23
2019-03-18T07:05:42.443Z,1006.23
2019-03-18T07:06:42.431Z,1006.27
2019-03-18T07:07:42.420Z,1006.23
2019-03-18T07:08:42.414Z,1006.29
2019-03-18T07:09:42.398Z,1006.33
2019-03-18T07:10:42.426Z,1006.40
2019-03-18T07:11:42.379Z,1006.40
2019-03-18T07:12:42.366Z,1006.41
2019-03-18T07:13:42.357Z,1006.44
2019-03-18T07:14:42.371Z,1006.42
2019-03-18T07:15:42.339Z,1006.45
2019-03-18T07:16:42.331Z,1006.50
2019-03-18T07:17:42.318Z,1006.47
2019-03-18T07:18:42.311Z,1006.46
2019-03-18T07:19:42.315Z,1006.45
2019-03-18T07:20:42.278Z,1006.50
2019-03-18T07:21:42.299Z,1006.47
2019-03-18T07:22:42.262Z,1006.51
2019-03-18T07:23:42.253Z,1006.53
2019-03-18T07:24:42.235Z,1006.55
2019-03-18T07:25:42.250Z,1006.54
2019-03-18T07:26:42.212Z,1006.55
2019-03-18T07:27:42.203Z,1006.56
2019-03-18T07:28:42.186Z,1006.59
2019-03-18T07:29:42.183Z,1006.71
2019-03-18T07:30:42.216Z,1006.57
2019-03-18T07:31:42.165Z,1006.60
2019-03-18T07:32:42.145Z,1006.69
2019-03-18T07:33:42.132Z,1006.66
2019-03-18T07:34:42.121Z,1006.70
2019-03-18T07:35:42.144Z,1006.69
2019-03-18T07:36:42.106Z,1006.75
2019-03-18T07:37:42.083Z,1006.76
2019-03-18T07:38:42.083Z,1006.82
2019-03-18T07:39:42.064Z,1006.79
2019-03-18T07:40:42.078Z,1006.80
2019-03-18T07:41:42.039Z,1006.78
2019-03-18T07:42:42.033Z,1006.84
2019-03-18T07:43:42.021Z,1006.87
2019-03-18T07:44:42.007Z,1006.82
2019-03-18T07:45:42.020Z,1006.84
2019-03-18T07:46:41.987Z,1006.85
2019-03-18T07:47:41.971Z,1006.90
2019-03-18T07:48:41.963Z,1006.91
2019-03-18T07:49:41.962Z,1006.95
2019-03-18T07:50:41.965Z,1006.97
2019-03-18T07:51:41.955Z,1006.96
2019-03-18T07:52:41.915Z,1007.07
2019-03-18T07:53:41.908Z,1006.99
2019-03-18T07:54:41.910Z,1006.98
2019-03-18T07:55:41.906Z,1006.98
2019-03-18T07:56:41.963Z,1006.98
2019-03-18T07:57:41.866Z,1007.03
2019-03-18T07:58:41.852Z,1006.98
2019-03-18T07:59:41.835Z,1007.03
2019-03-18T08:00:41.842Z,1007.06
2019-03-18T08:01:41.841Z,1007.00
2019-03-18T08:02:41.986Z,1007.00
2019-03-18T08:03:41.801Z,1007.12
2019-03-18T08:04:41.799Z,1007.16
2019-03-18T08:05:41.769Z,1007.15
2019-03-18T08:06:41.803Z,1007.26
2019-03-18T08:07:41.759Z,1007.27
2019-03-18T08:08:41.748Z,1007.26
2019-03-18T08:09:41.722Z,1007.12
2019-03-18T08:10:41.719Z,1007.22
2019-03-18T08:11:41.705Z,1007.26
2019-03-18T08:12:41.725Z,1007.22
2019-03-18T08:13:41.751Z,1007.23
2019-03-18T08:14:41.684Z,1007.22
2019-03-18T08:15:41.654Z,1007.27
2019-03-18T08:16:41.644Z,1007.37
2019-03-18T08:17:41.657Z,1007.32
2019-03-18T08:18:43.458Z,1007.32
2019-03-18T08:19:41.610Z,1007.39
2019-03-18T08:20:41.598Z,1007.39
2019-03-18T08:21:41.592Z,1007.42
2019-03-18T08:22:41.614Z,1007.37
2019-03-18T08:23:41.568Z,1007.37
2019-03-18T08:24:41.568Z,1007.50
2019-03-18T08:25:41.544Z,1007.43
2019-03-18T08:26:41.537Z,1007.45
2019-03-18T08:27:41.563Z,1007.51
2019-03-18T08:28:41.518Z,1007.48
2019-03-18T08:29:41.498Z,1007.44
2019-03-18T08:30:41.491Z,1007.50
2019-03-18T08:31:41.479Z,1007.49
2019-03-18T08:32:41.465Z,1007.57
2019-03-18T08:33:41.476Z,1007.49
2019-03-18T08:34:41.453Z,1007.44
2019-03-18T08:35:41.431Z,1007.45
2019-03-18T08:36:41.418Z,1007.52
2019-03-18T08:37:41.410Z,1007.46
2019-03-18T08:38:41.428Z,1007.51
2019-03-18T08:39:41.393Z,1007.50
2019-03-18T08:40:41.376Z,1007.51
2019-03-18T08:41:41.362Z,1007.58
2019-03-18T08:42:41.357Z,1007.56
2019-03-18T08:43:41.370Z,1007.50
2019-03-18T08:44:41.340Z,1007.55
2019-03-18T08:45:41.319Z,1007.54
2019-03-18T08:46:41.336Z,1007.64
2019-03-18T08:47:41.296Z,1007.60
2019-03-18T08:48:41.312Z,1007.60
2019-03-18T08:49:41.351Z,1007.59
2019-03-18T08:50:41.267Z,1007.60
2019-03-18T08:51:41.255Z,1007.61
2019-03-18T08:52:41.250Z,1007.68
2019-03-18T08:53:41.264Z,1007.62
2019-03-18T08:54:41.226Z,1007.65
2019-03-18T08:55:41.206Z,1007.66
2019-03-18T08:56:41.199Z,1007.76
2019-03-18T08:57:41.202Z,1007.72
2019-03-18T08:58:41.209Z,1007.75
2019-03-18T08:59:41.167Z,1007.74
2019-03-18T09:00:41.155Z,1007.78
2019-03-18T09:01:41.140Z,1007.74
2019-03-18T09:02:41.154Z,1007.77
2019-03-18T09:03:41.297Z,1007.86
2019-03-18T09:04:41.117Z,1007.79
2019-03-18T09:05:41.097Z,1007.90
2019-03-18T09:06:41.087Z,1007.84
2019-03-18T09:07:41.083Z,1007.89
2019-03-18T09:08:41.066Z,1007.80
2019-03-18T09:09:41.094Z,1007.89
2019-03-18T09:10:41.039Z,1007.91
2019-03-18T09:11:41.032Z,1007.95
2019-03-18T09:12:41.018Z,1007.92
2019-03-18T09:13:41.016Z,1007.99
2019-03-18T09:14:41.027Z,1007.99
2019-03-18T09:15:40.986Z,1008.00
2019-03-18T09:16:40.978Z,1007.96
2019-03-18T09:17:40.974Z,1007.96
2019-03-18T09:18:40.957Z,1007.99
2019-03-18T09:19:40.993Z,1007.96
2019-03-18T09:20:40.949Z,1007.96
2019-03-18T09:21:40.924Z,1008.00
2019-03-18T09:22:40.907Z,1007.97
2019-03-18T09:23:40.902Z,1007.96
2019-03-18T09:24:40.917Z,1007.99
2019-03-18T09:25:40.874Z,1008.06
2019-03-18T09:26:40.866Z,1008.09
2019-03-18T09:27:40.869Z,1008.05
2019-03-18T09:28:40.840Z,1008.12
2019-03-18T09:29:40.837Z,1008.06
2019-03-18T09:30:40.845Z,1008.09
2019-03-18T09:31:40.823Z,1008.19
2019-03-18T09:32:40.807Z,1008.16
2019-03-18T09:33:40.789Z,1008.20
2019-03-18T09:34:40.806Z,1008.19
2019-03-18T09:35:40.785Z,1008.16
2019-03-18T09:36:40.757Z,1008.17
2019-03-18T09:37:40.750Z,1008.13
2019-03-18T09:38:40.737Z,1008.19
2019-03-18T09:39:40.722Z,1008.19
2019-03-18T09:40:40.746Z,1008.21
2019-03-18T09:41:40.765Z,1008.32
2019-03-18T09:42:40.694Z,1008.30
2019-03-18T09:43:40.680Z,1008.33
2019-03-18T09:44:40.663Z,1008.37
2019-03-18T09:45:40.684Z,1008.32
2019-03-18T09:46:40.646Z,1008.34
2019-03-18T09:47:40.634Z,1008.36
2019-03-18T09:48:40.624Z,1008.29
2019-03-18T09:49:40.613Z,1008.32
2019-03-18T09:50:40.633Z,1008.35
2019-03-18T09:51:40.588Z,1008.26
2019-03-18T09:52:40.584Z,1008.34
2019-03-18T09:53:40.568Z,1008.43
2019-03-18T09:54:40.559Z,1008.43
2019-03-18T09:55:40.563Z,1008.45
2019-03-18T09:56:40.530Z,1008.41
2019-03-18T09:57:40.521Z,1008.51
2019-03-18T09:58:40.535Z,1008.50
2019-03-18T09:59:40.499Z,1008.50
2019-03-18T10:00:40.510Z,1008.51
2019-03-18T10:01:40.477Z,1008.54
2019-03-18T10:02:40.472Z,1008.48
2019-03-18T10:03:40.457Z,1008.52
2019-03-18T10:04:40.446Z,1008.49
2019-03-18T10:05:40.457Z,1008.45
2019-03-18T10:06:40.423Z,1008.54
2019-03-18T10:07:40.435Z,1008.52
2019-03-18T10:08:40.408Z,1008.50
2019-03-18T10:09:40.390Z,1008.53
2019-03-18T10:10:40.420Z,1008.52
2019-03-18T10:11:40.371Z,1008.49
2019-03-18T10:12:40.357Z,1008.50
2019-03-18T10:13:40.354Z,1008.43
2019-03-18T10:14:40.332Z,1008.58
2019-03-18T10:15:40.367Z,1008.55
2019-03-18T10:16:40.332Z,1008.66
2019-03-18T10:17:40.297Z,1008.71
2019-03-18T10:18:40.288Z,1008.69
2019-03-18T10:19:40.276Z,1008.66
2019-03-18T10:20:40.262Z,1008.75
2019-03-18T10:21:40.280Z,1008.74
2019-03-18T10:22:40.262Z,1008.68
2019-03-18T10:23:40.243Z,1008.68
2019-03-18T10:24:40.222Z,1008.68
2019-03-18T10:25:40.212Z,1008.88
2019-03-18T10:26:40.239Z,1008.73
2019-03-18T10:27:40.192Z,1008.68
2019-03-18T10:28:40.177Z,1008.72
2019-03-18T10:29:40.170Z,1008.69
2019-03-18T10:30:40.158Z,1008.64
2019-03-18T10:31:40.174Z,1008.69
2019-03-18T10:32:40.130Z,1008.81
2019-03-18T10:33:40.127Z,1008.89
2019-03-18T10:34:40.108Z,1008.76
2019-03-18T10:35:40.101Z,1008.64
2019-03-18T10:36:40.110Z,1008.80
2019-03-18T10:37:40.087Z,1008.58
2019-03-18T10:38:40.067Z,1008.80
2019-03-18T10:39:40.069Z,1008.91
2019-03-18T10:40:40.046Z,1008.78
2019-03-18T10:41:40.076Z,1008.89
2019-03-18T10:42:40.062Z,1008.74
2019-03-18T10:43:40.015Z,1008.60
2019-03-18T10:44:40.009Z,1008.80
2019-03-18T10:45:39.991Z,1008.84
2019-03-18T10:46:39.979Z,1008.63
2019-03-18T10:47:40.018Z,1008.67
2019-03-18T10:48:39.962Z,1008.74
2019-03-18T10:49:46.084Z,1008.74
2019-03-18T10:50:40.942Z,1008.71
2019-03-18T10:51:39.928Z,1008.79
2019-03-18T10:52:39.971Z,1008.74
2019-03-18T10:53:39.896Z,1008.86
2019-03-18T10:54:39.917Z,1008.89
2019-03-18T10:55:39.879Z,1008.82
2019-03-18T10:56:41.197Z,1008.87
2019-03-18T10:57:39.889Z,1008.90
2019-03-18T10:58:39.844Z,1008.96
2019-03-18T10:59:39.843Z,1008.91
2019-03-18T11:00:39.823Z,1008.89
2019-03-18T11:01:39.814Z,1008.91
2019-03-18T11:02:39.845Z,1008.86
2019-03-18T11:03:39.800Z,1008.88
2019-03-18T11:04:39.783Z,1008.94
2019-03-18T11:05:39.765Z,1008.94
2019-03-18T11:06:39.764Z,1008.94
2019-03-18T11:07:39.742Z,1009.00
2019-03-18T11:08:39.767Z,1008.94
2019-03-18T11:09:39.730Z,1008.96
2019-03-18T11:10:39.709Z,1008.97
2019-03-18T11:11:39.707Z,1009.06
2019-03-18T11:12:39.690Z,1009.00
2019-03-18T11:13:40.456Z,1009.03
2019-03-18T11:14:39.682Z,1009.08
2019-03-18T11:15:39.653Z,1009.17
2019-03-18T11:16:39.677Z,1009.10
2019-03-18T11:17:39.651Z,1009.10
2019-03-18T11:18:39.645Z,1009.11
2019-03-18T11:19:39.617Z,1009.18
2019-03-18T11:20:39.600Z,1009.16
2019-03-18T11:21:39.592Z,1009.18
2019-03-18T11:22:39.583Z,1009.20
2019-03-18T11:23:39.587Z,1009.18
2019-03-18T11:24:39.556Z,1009.21
2019-03-18T11:25:39.550Z,1009.26
2019-03-18T11:26:39.533Z,1009.32
2019-03-18T11:27:39.542Z,1009.40
2019-03-18T11:28:39.539Z,1009.45
2019-03-18T11:29:39.540Z,1009.52
2019-03-18T11:30:39.490Z,1009.73
2019-03-18T11:31:39.476Z,1009.68
2019-03-18T11:32:39.467Z,1009.81
2019-03-18T11:33:39.481Z,1009.80
2019-03-18T11:34:39.443Z,1009.78
2019-03-18T11:35:39.431Z,1009.82
2019-03-18T11:36:39.425Z,1009.95
2019-03-18T11:37:39.413Z,1010.02
2019-03-18T11:38:39.423Z,1009.95
2019-03-18T11:39:39.422Z,1009.96
2019-03-18T11:40:39.379Z,1009.95
2019-03-18T11:41:39.367Z,1009.98
2019-03-18T11:42:39.364Z,1009.96
2019-03-18T11:43:39.351Z,1010.03
2019-03-18T11:44:39.363Z,1009.96
2019-03-18T11:45:39.322Z,1009.98
2019-03-18T11:46:40.600Z,1009.97
2019-03-18T11:47:39.304Z,1009.95
2019-03-18T11:48:39.290Z,1009.99
2019-03-18T11:49:40.055Z,1009.92
2019-03-18T11:50:41.456Z,1009.91
2019-03-18T11:51:39.255Z,1009.95
2019-03-18T11:52:39.255Z,1009.96
2019-03-18T11:53:39.241Z,1009.90
2019-03-18T11:54:39.224Z,1009.86
2019-03-18T11:55:39.250Z,1009.94
2019-03-18T11:56:39.209Z,1009.96
2019-03-18T11:57:39.195Z,1010.00
2019-03-18T11:58:39.178Z,1009.97
2019-03-18T11:59:39.182Z,1009.93
2019-03-18T12:00:39.190Z,1009.94
2019-03-18T12:01:39.145Z,1009.90
2019-03-18T12:02:39.145Z,1009.93
2019-03-18T12:03:39.132Z,1009.92
2019-03-18T12:04:39.114Z,1009.87
2019-03-18T12:05:39.126Z,1009.84
2019-03-18T12:06:39.098Z,1009.85